sensor_id;sensor_type;location;lat;lon;timestamp;temperature;humidity
24097;DHT22;12275;48.550;12.132;2022-08-21T00:01:08;17.70;99.90
24097;DHT22;12275;48.550;12.132;2022-08-21T00:03:36;17.70;99.90
24097;DHT22;12275;48.550;12.132;2022-08-21T00:06:02;17.70;99.90
24097;DHT22;12275;48.550;12.132;2022-08-21T00:08:28;17.70;99.90
24097;DHT22;12275;48.550;12.132;2022-08-21T00:10:54;17.70;99.90
24097;DHT22;12275;48.550;12.132;2022-08-21T00:13:20;17.70;99.90
24097;DHT22;12275;48.550;12.132;2022-08-21T00:15:47;17.70;99.90
24097;DHT22;12275;48.550;12.132;2022-08-21T00:18:13;17.70;99.90
24097;DHT22;12275;48.550;12.132;2022-08-21T00:20:40;17.70;99.90
24097;DHT22;12275;48.550;12.132;2022-08-21T00:23:07;17.70;99.90
24097;DHT22;12275;48.550;12.132;2022-08-21T00:25:33;17.70;99.90
24097;DHT22;12275;48.550;12.132;2022-08-21T00:27:59;17.70;99.90
24097;DHT22;12275;48.550;12.132;2022-08-21T00:30:26;17.70;99.90
24097;DHT22;12275;48.550;12.132;2022-08-21T00:32:53;17.70;99.90
24097;DHT22;12275;48.550;12.132;2022-08-21T00:35:29;17.70;99.90
24097;DHT22;12275;48.550;12.132;2022-08-21T00:37:55;17.70;99.90
24097;DHT22;12275;48.550;12.132;2022-08-21T00:40:28;17.70;99.90
24097;DHT22;12275;48.550;12.132;2022-08-21T00:42:54;17.70;99.90
24097;DHT22;12275;48.550;12.132;2022-08-21T00:45:21;17.70;99.90
24097;DHT22;12275;48.550;12.132;2022-08-21T00:47:48;17.60;99.90
24097;DHT22;12275;48.550;12.132;2022-08-21T00:50:14;17.70;99.90
24097;DHT22;12275;48.550;12.132;2022-08-21T00:52:40;17.70;99.90
24097;DHT22;12275;48.550;12.132;2022-08-21T00:55:08;17.70;99.90
24097;DHT22;12275;48.550;12.132;2022-08-21T00:57:43;17.70;99.90
24097;DHT22;12275;48.550;12.132;2022-08-21T01:00:15;17.70;99.90
24097;DHT22;12275;48.550;12.132;2022-08-21T01:02:42;17.70;99.90
24097;DHT22;12275;48.550;12.132;2022-08-21T01:05:09;17.70;99.90
24097;DHT22;12275;48.550;12.132;2022-08-21T01:07:35;17.70;99.90
24097;DHT22;12275;48.550;12.132;2022-08-21T01:10:02;17.60;99.90
24097;DHT22;12275;48.550;12.132;2022-08-21T01:12:28;17.60;99.90
24097;DHT22;12275;48.550;12.132;2022-08-21T01:14:54;17.70;99.90
24097;DHT22;12275;48.550;12.132;2022-08-21T01:17:20;17.70;99.90
24097;DHT22;12275;48.550;12.132;2022-08-21T01:19:46;17.70;99.90
24097;DHT22;12275;48.550;12.132;2022-08-21T01:22:14;17.70;99.90
24097;DHT22;12275;48.550;12.132;2022-08-21T01:24:39;17.70;99.90
24097;DHT22;12275;48.550;12.132;2022-08-21T01:27:05;17.70;99.90
24097;DHT22;12275;48.550;12.132;2022-08-21T01:29:51;17.70;99.90
24097;DHT22;12275;48.550;12.132;2022-08-21T01:32:19;17.70;99.90
24097;DHT22;12275;48.550;12.132;2022-08-21T01:34:47;17.80;99.90
24097;DHT22;12275;48.550;12.132;2022-08-21T01:37:13;17.80;99.90
24097;DHT22;12275;48.550;12.132;2022-08-21T01:39:39;17.80;99.90
24097;DHT22;12275;48.550;12.132;2022-08-21T01:42:06;17.80;99.90
24097;DHT22;12275;48.550;12.132;2022-08-21T01:44:31;17.70;99.90
24097;DHT22;12275;48.550;12.132;2022-08-21T01:46:59;17.80;99.90
24097;DHT22;12275;48.550;12.132;2022-08-21T01:49:26;17.80;99.90
24097;DHT22;12275;48.550;12.132;2022-08-21T01:51:52;17.70;99.90
24097;DHT22;12275;48.550;12.132;2022-08-21T01:54:18;17.70;99.90
24097;DHT22;12275;48.550;12.132;2022-08-21T01:56:46;17.70;99.90
24097;DHT22;12275;48.550;12.132;2022-08-21T01:59:13;17.70;99.90
24097;DHT22;12275;48.550;12.132;2022-08-21T02:01:39;17.70;99.90
24097;DHT22;12275;48.550;12.132;2022-08-21T02:04:06;17.70;99.90
24097;DHT22;12275;48.550;12.132;2022-08-21T02:06:33;17.70;99.90
24097;DHT22;12275;48.550;12.132;2022-08-21T02:09:00;17.70;99.90
24097;DHT22;12275;48.550;12.132;2022-08-21T02:11:26;17.70;99.90
24097;DHT22;12275;48.550;12.132;2022-08-21T02:13:52;17.70;99.90
24097;DHT22;12275;48.550;12.132;2022-08-21T02:16:18;17.70;99.90
24097;DHT22;12275;48.550;12.132;2022-08-21T02:18:44;17.70;99.90
24097;DHT22;12275;48.550;12.132;2022-08-21T02:21:09;17.70;99.90
24097;DHT22;12275;48.550;12.132;2022-08-21T02:23:35;17.70;99.90
24097;DHT22;12275;48.550;12.132;2022-08-21T02:26:02;17.70;99.90
24097;DHT22;12275;48.550;12.132;2022-08-21T02:28:28;17.70;99.90
24097;DHT22;12275;48.550;12.132;2022-08-21T02:30:55;17.70;99.90
24097;DHT22;12275;48.550;12.132;2022-08-21T02:33:22;17.70;99.90
24097;DHT22;12275;48.550;12.132;2022-08-21T02:35:49;17.70;99.90
24097;DHT22;12275;48.550;12.132;2022-08-21T02:38:19;17.70;99.90
24097;DHT22;12275;48.550;12.132;2022-08-21T02:40:47;17.70;99.90
24097;DHT22;12275;48.550;12.132;2022-08-21T02:43:14;17.70;99.90
24097;DHT22;12275;48.550;12.132;2022-08-21T02:45:41;17.70;99.90
24097;DHT22;12275;48.550;12.132;2022-08-21T02:48:09;17.70;99.90
24097;DHT22;12275;48.550;12.132;2022-08-21T02:50:38;17.70;99.90
24097;DHT22;12275;48.550;12.132;2022-08-21T02:53:06;17.70;99.90
24097;DHT22;12275;48.550;12.132;2022-08-21T02:55:34;17.70;99.90
24097;DHT22;12275;48.550;12.132;2022-08-21T02:58:02;17.60;99.90
24097;DHT22;12275;48.550;12.132;2022-08-21T03:00:29;17.60;99.90
24097;DHT22;12275;48.550;12.132;2022-08-21T03:02:55;17.60;99.90
24097;DHT22;12275;48.550;12.132;2022-08-21T03:05:22;17.60;99.90
24097;DHT22;12275;48.550;12.132;2022-08-21T03:07:49;17.60;99.90
24097;DHT22;12275;48.550;12.132;2022-08-21T03:10:16;17.60;99.90
24097;DHT22;12275;48.550;12.132;2022-08-21T03:12:41;17.60;99.90
24097;DHT22;12275;48.550;12.132;2022-08-21T03:15:10;17.60;99.90
24097;DHT22;12275;48.550;12.132;2022-08-21T03:17:36;17.60;99.90
24097;DHT22;12275;48.550;12.132;2022-08-21T03:20:04;17.60;99.90
24097;DHT22;12275;48.550;12.132;2022-08-21T03:22:31;17.60;99.90
24097;DHT22;12275;48.550;12.132;2022-08-21T03:24:58;17.60;99.90
24097;DHT22;12275;48.550;12.132;2022-08-21T03:27:24;17.60;99.90
24097;DHT22;12275;48.550;12.132;2022-08-21T03:29:49;17.60;99.90
24097;DHT22;12275;48.550;12.132;2022-08-21T03:32:15;17.60;99.90
24097;DHT22;12275;48.550;12.132;2022-08-21T03:34:41;17.60;99.90
24097;DHT22;12275;48.550;12.132;2022-08-21T03:37:07;17.50;99.90
24097;DHT22;12275;48.550;12.132;2022-08-21T03:39:34;17.50;99.90
24097;DHT22;12275;48.550;12.132;2022-08-21T03:41:59;17.50;99.90
24097;DHT22;12275;48.550;12.132;2022-08-21T03:44:27;17.50;99.90
24097;DHT22;12275;48.550;12.132;2022-08-21T03:46:55;17.50;99.90
24097;DHT22;12275;48.550;12.132;2022-08-21T03:49:21;17.50;99.90
24097;DHT22;12275;48.550;12.132;2022-08-21T03:51:47;17.50;99.90
24097;DHT22;12275;48.550;12.132;2022-08-21T03:54:13;17.50;99.90
24097;DHT22;12275;48.550;12.132;2022-08-21T03:56:38;17.50;99.90
24097;DHT22;12275;48.550;12.132;2022-08-21T03:59:05;17.50;99.90
24097;DHT22;12275;48.550;12.132;2022-08-21T04:01:31;17.50;99.90
24097;DHT22;12275;48.550;12.132;2022-08-21T04:03:57;17.40;99.90
24097;DHT22;12275;48.550;12.132;2022-08-21T04:06:22;17.40;99.90
24097;DHT22;12275;48.550;12.132;2022-08-21T04:08:48;17.40;99.90
24097;DHT22;12275;48.550;12.132;2022-08-21T04:11:14;17.40;99.90
24097;DHT22;12275;48.550;12.132;2022-08-21T04:13:40;17.40;99.90
24097;DHT22;12275;48.550;12.132;2022-08-21T04:16:07;17.40;99.90
24097;DHT22;12275;48.550;12.132;2022-08-21T04:18:33;17.40;99.90
24097;DHT22;12275;48.550;12.132;2022-08-21T04:21:00;17.40;99.90
24097;DHT22;12275;48.550;12.132;2022-08-21T04:23:27;17.40;99.90
24097;DHT22;12275;48.550;12.132;2022-08-21T04:25:54;17.30;99.90
24097;DHT22;12275;48.550;12.132;2022-08-21T04:28:22;17.30;99.90
24097;DHT22;12275;48.550;12.132;2022-08-21T04:30:48;17.30;99.90
24097;DHT22;12275;48.550;12.132;2022-08-21T04:33:14;17.30;99.90
24097;DHT22;12275;48.550;12.132;2022-08-21T04:35:40;17.30;99.90
24097;DHT22;12275;48.550;12.132;2022-08-21T04:38:07;17.20;99.90
24097;DHT22;12275;48.550;12.132;2022-08-21T04:40:32;17.20;99.90
24097;DHT22;12275;48.550;12.132;2022-08-21T04:43:02;17.20;99.90
24097;DHT22;12275;48.550;12.132;2022-08-21T04:48:03;17.20;99.90
24097;DHT22;12275;48.550;12.132;2022-08-21T04:53:23;17.20;99.90
24097;DHT22;12275;48.550;12.132;2022-08-21T04:55:50;17.10;99.90
24097;DHT22;12275;48.550;12.132;2022-08-21T04:58:20;17.10;99.90
24097;DHT22;12275;48.550;12.132;2022-08-21T05:00:47;17.10;99.90
24097;DHT22;12275;48.550;12.132;2022-08-21T05:03:14;17.10;99.90
24097;DHT22;12275;48.550;12.132;2022-08-21T05:05:41;17.20;99.90
24097;DHT22;12275;48.550;12.132;2022-08-21T05:08:09;17.10;99.90
24097;DHT22;12275;48.550;12.132;2022-08-21T05:10:37;17.10;99.90
24097;DHT22;12275;48.550;12.132;2022-08-21T05:13:03;17.10;99.90
24097;DHT22;12275;48.550;12.132;2022-08-21T05:15:30;17.10;99.90
24097;DHT22;12275;48.550;12.132;2022-08-21T05:17:57;17.10;99.90
24097;DHT22;12275;48.550;12.132;2022-08-21T05:20:23;17.00;99.90
24097;DHT22;12275;48.550;12.132;2022-08-21T05:22:48;17.10;99.90
24097;DHT22;12275;48.550;12.132;2022-08-21T05:25:14;17.00;99.90
24097;DHT22;12275;48.550;12.132;2022-08-21T05:27:40;17.00;99.90
24097;DHT22;12275;48.550;12.132;2022-08-21T05:30:07;17.00;99.90
24097;DHT22;12275;48.550;12.132;2022-08-21T05:32:42;17.00;99.90
24097;DHT22;12275;48.550;12.132;2022-08-21T05:35:10;17.00;99.90
24097;DHT22;12275;48.550;12.132;2022-08-21T05:37:36;17.00;99.90
24097;DHT22;12275;48.550;12.132;2022-08-21T05:40:03;17.00;99.90
24097;DHT22;12275;48.550;12.132;2022-08-21T05:42:29;17.00;99.90
24097;DHT22;12275;48.550;12.132;2022-08-21T05:44:56;17.10;99.90
24097;DHT22;12275;48.550;12.132;2022-08-21T05:47:21;17.00;99.90
24097;DHT22;12275;48.550;12.132;2022-08-21T05:49:47;17.10;99.90
24097;DHT22;12275;48.550;12.132;2022-08-21T05:52:19;17.00;99.90
24097;DHT22;12275;48.550;12.132;2022-08-21T05:54:45;16.90;99.90
24097;DHT22;12275;48.550;12.132;2022-08-21T05:57:11;17.00;99.90
24097;DHT22;12275;48.550;12.132;2022-08-21T05:59:37;17.00;99.90
24097;DHT22;12275;48.550;12.132;2022-08-21T06:02:03;17.00;99.90
24097;DHT22;12275;48.550;12.132;2022-08-21T06:04:29;16.90;99.90
24097;DHT22;12275;48.550;12.132;2022-08-21T06:06:54;16.90;99.90
24097;DHT22;12275;48.550;12.132;2022-08-21T06:09:20;16.90;99.90
24097;DHT22;12275;48.550;12.132;2022-08-21T06:11:46;16.90;99.90
24097;DHT22;12275;48.550;12.132;2022-08-21T06:14:14;16.90;99.90
24097;DHT22;12275;48.550;12.132;2022-08-21T06:16:40;16.90;99.90
24097;DHT22;12275;48.550;12.132;2022-08-21T06:19:05;16.90;99.90
24097;DHT22;12275;48.550;12.132;2022-08-21T06:21:31;16.90;99.90
24097;DHT22;12275;48.550;12.132;2022-08-21T06:23:57;17.00;99.90
24097;DHT22;12275;48.550;12.132;2022-08-21T06:26:23;17.00;99.90
24097;DHT22;12275;48.550;12.132;2022-08-21T06:28:49;17.10;99.90
24097;DHT22;12275;48.550;12.132;2022-08-21T06:31:18;17.10;99.90
24097;DHT22;12275;48.550;12.132;2022-08-21T06:33:44;17.10;99.90
24097;DHT22;12275;48.550;12.132;2022-08-21T06:36:10;17.10;99.90
24097;DHT22;12275;48.550;12.132;2022-08-21T06:38:36;17.10;99.90
24097;DHT22;12275;48.550;12.132;2022-08-21T06:41:03;17.10;99.90
24097;DHT22;12275;48.550;12.132;2022-08-21T06:43:29;17.20;99.90
24097;DHT22;12275;48.550;12.132;2022-08-21T06:45:54;17.30;99.90
24097;DHT22;12275;48.550;12.132;2022-08-21T06:48:20;17.40;99.90
24097;DHT22;12275;48.550;12.132;2022-08-21T06:50:47;17.40;99.90
24097;DHT22;12275;48.550;12.132;2022-08-21T06:53:16;17.30;99.90
24097;DHT22;12275;48.550;12.132;2022-08-21T06:55:42;17.40;99.90
24097;DHT22;12275;48.550;12.132;2022-08-21T06:58:11;17.50;99.90
24097;DHT22;12275;48.550;12.132;2022-08-21T07:00:43;17.50;99.90
24097;DHT22;12275;48.550;12.132;2022-08-21T07:03:21;17.50;99.90
24097;DHT22;12275;48.550;12.132;2022-08-21T07:05:47;17.50;99.90
24097;DHT22;12275;48.550;12.132;2022-08-21T07:08:13;17.50;99.90
24097;DHT22;12275;48.550;12.132;2022-08-21T07:10:39;17.50;99.90
24097;DHT22;12275;48.550;12.132;2022-08-21T07:13:04;17.50;99.90
24097;DHT22;12275;48.550;12.132;2022-08-21T07:15:30;17.40;99.90
24097;DHT22;12275;48.550;12.132;2022-08-21T07:18:00;17.40;99.90
24097;DHT22;12275;48.550;12.132;2022-08-21T07:20:28;17.50;99.90
24097;DHT22;12275;48.550;12.132;2022-08-21T07:22:55;17.50;99.90
24097;DHT22;12275;48.550;12.132;2022-08-21T07:25:22;17.50;99.90
24097;DHT22;12275;48.550;12.132;2022-08-21T07:27:47;17.50;99.90
24097;DHT22;12275;48.550;12.132;2022-08-21T07:30:13;17.60;99.90
24097;DHT22;12275;48.550;12.132;2022-08-21T07:32:39;17.50;99.90
24097;DHT22;12275;48.550;12.132;2022-08-21T07:35:05;17.50;99.90
24097;DHT22;12275;48.550;12.132;2022-08-21T07:37:31;17.50;99.90
24097;DHT22;12275;48.550;12.132;2022-08-21T07:39:57;17.60;99.90
24097;DHT22;12275;48.550;12.132;2022-08-21T07:42:22;17.60;99.90
24097;DHT22;12275;48.550;12.132;2022-08-21T07:44:48;17.60;99.90
24097;DHT22;12275;48.550;12.132;2022-08-21T07:47:14;17.60;99.90
24097;DHT22;12275;48.550;12.132;2022-08-21T07:49:40;17.70;99.90
24097;DHT22;12275;48.550;12.132;2022-08-21T07:52:06;17.70;99.90
24097;DHT22;12275;48.550;12.132;2022-08-21T07:54:31;17.70;99.90
24097;DHT22;12275;48.550;12.132;2022-08-21T07:56:57;17.70;99.90
24097;DHT22;12275;48.550;12.132;2022-08-21T07:59:23;17.70;99.90
24097;DHT22;12275;48.550;12.132;2022-08-21T08:01:48;17.80;99.90
24097;DHT22;12275;48.550;12.132;2022-08-21T08:04:14;17.80;99.90
24097;DHT22;12275;48.550;12.132;2022-08-21T08:06:41;17.90;99.90
24097;DHT22;12275;48.550;12.132;2022-08-21T08:09:06;17.80;99.90
24097;DHT22;12275;48.550;12.132;2022-08-21T08:11:32;17.80;99.90
24097;DHT22;12275;48.550;12.132;2022-08-21T08:13:58;17.90;99.90
24097;DHT22;12275;48.550;12.132;2022-08-21T08:16:25;17.90;99.90
24097;DHT22;12275;48.550;12.132;2022-08-21T08:18:52;17.90;99.90
24097;DHT22;12275;48.550;12.132;2022-08-21T08:21:19;18.00;99.90
24097;DHT22;12275;48.550;12.132;2022-08-21T08:23:47;18.00;99.90
24097;DHT22;12275;48.550;12.132;2022-08-21T08:26:14;18.10;99.90
24097;DHT22;12275;48.550;12.132;2022-08-21T08:28:41;18.00;99.90
24097;DHT22;12275;48.550;12.132;2022-08-21T08:31:08;18.00;99.90
24097;DHT22;12275;48.550;12.132;2022-08-21T08:33:34;18.00;99.90
24097;DHT22;12275;48.550;12.132;2022-08-21T08:36:00;18.00;99.90
24097;DHT22;12275;48.550;12.132;2022-08-21T08:38:27;18.10;99.90
24097;DHT22;12275;48.550;12.132;2022-08-21T08:41:11;18.10;99.90
24097;DHT22;12275;48.550;12.132;2022-08-21T08:43:39;18.00;99.90
24097;DHT22;12275;48.550;12.132;2022-08-21T08:46:14;18.10;99.90
24097;DHT22;12275;48.550;12.132;2022-08-21T08:53:59;18.20;99.90
24097;DHT22;12275;48.550;12.132;2022-08-21T08:56:35;18.40;99.90
24097;DHT22;12275;48.550;12.132;2022-08-21T08:59:11;18.50;99.90
24097;DHT22;12275;48.550;12.132;2022-08-21T09:01:45;18.50;99.90
24097;DHT22;12275;48.550;12.132;2022-08-21T09:04:11;18.60;99.90
24097;DHT22;12275;48.550;12.132;2022-08-21T09:09:25;18.70;99.90
24097;DHT22;12275;48.550;12.132;2022-08-21T09:11:59;18.70;99.90
24097;DHT22;12275;48.550;12.132;2022-08-21T09:14:42;18.80;99.90
24097;DHT22;12275;48.550;12.132;2022-08-21T09:20:23;18.70;99.90
24097;DHT22;12275;48.550;12.132;2022-08-21T09:26:03;18.70;99.90
24097;DHT22;12275;48.550;12.132;2022-08-21T09:28:35;18.70;99.90
24097;DHT22;12275;48.550;12.132;2022-08-21T09:31:41;18.70;99.90
24097;DHT22;12275;48.550;12.132;2022-08-21T09:34:11;18.80;99.90
24097;DHT22;12275;48.550;12.132;2022-08-21T09:36:45;19.00;99.90
24097;DHT22;12275;48.550;12.132;2022-08-21T09:39:23;19.10;99.90
24097;DHT22;12275;48.550;12.132;2022-08-21T09:41:59;19.10;99.90
24097;DHT22;12275;48.550;12.132;2022-08-21T09:44:28;19.20;99.90
24097;DHT22;12275;48.550;12.132;2022-08-21T09:46:54;19.30;99.90
24097;DHT22;12275;48.550;12.132;2022-08-21T09:49:46;19.40;99.90
24097;DHT22;12275;48.550;12.132;2022-08-21T09:52:20;19.40;99.90
24097;DHT22;12275;48.550;12.132;2022-08-21T09:54:50;19.40;99.90
24097;DHT22;12275;48.550;12.132;2022-08-21T09:57:25;19.50;99.90
24097;DHT22;12275;48.550;12.132;2022-08-21T10:02:46;19.60;99.90
24097;DHT22;12275;48.550;12.132;2022-08-21T10:05:25;19.70;99.90
24097;DHT22;12275;48.550;12.132;2022-08-21T10:07:51;19.80;99.90
24097;DHT22;12275;48.550;12.132;2022-08-21T10:10:24;20.00;99.90
24097;DHT22;12275;48.550;12.132;2022-08-21T10:18:43;20.80;99.90
24097;DHT22;12275;48.550;12.132;2022-08-21T10:21:26;20.80;99.90
24097;DHT22;12275;48.550;12.132;2022-08-21T10:26:46;20.80;99.90
24097;DHT22;12275;48.550;12.132;2022-08-21T10:32:11;20.60;99.90
24097;DHT22;12275;48.550;12.132;2022-08-21T10:35:08;20.60;99.90
24097;DHT22;12275;48.550;12.132;2022-08-21T10:48:07;20.80;99.90
24097;DHT22;12275;48.550;12.132;2022-08-21T10:58:46;21.20;99.90
24097;DHT22;12275;48.550;12.132;2022-08-21T11:04:20;21.50;99.90
24097;DHT22;12275;48.550;12.132;2022-08-21T11:06:53;21.50;99.90
24097;DHT22;12275;48.550;12.132;2022-08-21T11:09:24;21.50;99.90
24097;DHT22;12275;48.550;12.132;2022-08-21T11:12:07;21.30;99.90
24097;DHT22;12275;48.550;12.132;2022-08-21T11:14:53;21.30;99.90
24097;DHT22;12275;48.550;12.132;2022-08-21T11:17:34;21.50;99.90
24097;DHT22;12275;48.550;12.132;2022-08-21T11:20:15;21.70;99.90
24097;DHT22;12275;48.550;12.132;2022-08-21T11:23:08;21.80;99.90
24097;DHT22;12275;48.550;12.132;2022-08-21T11:25:41;21.60;99.90
24097;DHT22;12275;48.550;12.132;2022-08-21T11:28:38;21.40;99.90
24097;DHT22;12275;48.550;12.132;2022-08-21T11:33:59;21.20;99.90
24097;DHT22;12275;48.550;12.132;2022-08-21T11:41:43;21.20;99.90
24097;DHT22;12275;48.550;12.132;2022-08-21T11:44:32;21.30;99.90
24097;DHT22;12275;48.550;12.132;2022-08-21T11:47:21;21.30;99.90
24097;DHT22;12275;48.550;12.132;2022-08-21T11:50:00;21.40;99.90
24097;DHT22;12275;48.550;12.132;2022-08-21T11:55:02;21.90;99.90
24097;DHT22;12275;48.550;12.132;2022-08-21T12:02:36;22.20;99.90
24097;DHT22;12275;48.550;12.132;2022-08-21T12:05:21;22.30;99.90
24097;DHT22;12275;48.550;12.132;2022-08-21T12:07:47;22.40;99.90
24097;DHT22;12275;48.550;12.132;2022-08-21T12:10:18;22.50;99.90
24097;DHT22;12275;48.550;12.132;2022-08-21T12:12:47;22.50;99.90
24097;DHT22;12275;48.550;12.132;2022-08-21T12:18:21;22.60;99.90
24097;DHT22;12275;48.550;12.132;2022-08-21T12:23:34;22.70;99.90
24097;DHT22;12275;48.550;12.132;2022-08-21T12:26:18;22.60;99.90
24097;DHT22;12275;48.550;12.132;2022-08-21T12:28:44;22.60;99.90
24097;DHT22;12275;48.550;12.132;2022-08-21T12:31:22;22.70;99.90
24097;DHT22;12275;48.550;12.132;2022-08-21T12:33:53;22.90;99.90
24097;DHT22;12275;48.550;12.132;2022-08-21T12:36:23;22.90;99.90
24097;DHT22;12275;48.550;12.132;2022-08-21T12:39:00;23.00;99.90
24097;DHT22;12275;48.550;12.132;2022-08-21T12:41:52;23.00;99.90
24097;DHT22;12275;48.550;12.132;2022-08-21T12:44:44;23.00;99.90
24097;DHT22;12275;48.550;12.132;2022-08-21T12:50:15;23.10;99.90
24097;DHT22;12275;48.550;12.132;2022-08-21T12:52:57;23.00;99.90
24097;DHT22;12275;48.550;12.132;2022-08-21T12:55:29;23.00;99.90
24097;DHT22;12275;48.550;12.132;2022-08-21T12:57:55;22.90;99.90
24097;DHT22;12275;48.550;12.132;2022-08-21T13:00:23;22.80;99.90
24097;DHT22;12275;48.550;12.132;2022-08-21T13:02:51;22.90;99.90
24097;DHT22;12275;48.550;12.132;2022-08-21T13:05:32;22.90;99.90
24097;DHT22;12275;48.550;12.132;2022-08-21T13:08:02;23.00;99.90
24097;DHT22;12275;48.550;12.132;2022-08-21T13:10:31;23.00;99.90
24097;DHT22;12275;48.550;12.132;2022-08-21T13:12:59;22.80;99.90
24097;DHT22;12275;48.550;12.132;2022-08-21T13:15:31;22.60;99.90
24097;DHT22;12275;48.550;12.132;2022-08-21T13:17:57;22.60;99.90
24097;DHT22;12275;48.550;12.132;2022-08-21T13:20:47;22.60;99.90
24097;DHT22;12275;48.550;12.132;2022-08-21T13:23:28;22.60;99.90
24097;DHT22;12275;48.550;12.132;2022-08-21T13:25:54;22.70;99.90
24097;DHT22;12275;48.550;12.132;2022-08-21T13:28:21;22.70;99.90
24097;DHT22;12275;48.550;12.132;2022-08-21T13:30:52;22.70;99.90
24097;DHT22;12275;48.550;12.132;2022-08-21T13:33:22;22.80;99.90
24097;DHT22;12275;48.550;12.132;2022-08-21T13:38:25;22.90;99.90
24097;DHT22;12275;48.550;12.132;2022-08-21T13:41:06;23.00;99.90
24097;DHT22;12275;48.550;12.132;2022-08-21T13:43:37;23.00;99.90
24097;DHT22;12275;48.550;12.132;2022-08-21T13:46:08;23.10;99.90
24097;DHT22;12275;48.550;12.132;2022-08-21T13:48:38;23.10;99.90
24097;DHT22;12275;48.550;12.132;2022-08-21T13:51:05;23.10;99.90
24097;DHT22;12275;48.550;12.132;2022-08-21T13:53:32;23.10;99.90
24097;DHT22;12275;48.550;12.132;2022-08-21T13:55:59;23.10;99.90
24097;DHT22;12275;48.550;12.132;2022-08-21T13:58:45;23.10;99.90
24097;DHT22;12275;48.550;12.132;2022-08-21T14:01:21;23.10;99.90
24097;DHT22;12275;48.550;12.132;2022-08-21T14:03:50;23.10;99.90
24097;DHT22;12275;48.550;12.132;2022-08-21T14:06:18;23.10;99.90
24097;DHT22;12275;48.550;12.132;2022-08-21T14:08:58;23.10;99.90
24097;DHT22;12275;48.550;12.132;2022-08-21T14:11:25;23.10;99.90
24097;DHT22;12275;48.550;12.132;2022-08-21T14:13:58;23.10;99.90
24097;DHT22;12275;48.550;12.132;2022-08-21T14:16:41;23.10;99.90
24097;DHT22;12275;48.550;12.132;2022-08-21T14:19:12;23.10;99.90
24097;DHT22;12275;48.550;12.132;2022-08-21T14:21:43;23.00;99.90
24097;DHT22;12275;48.550;12.132;2022-08-21T14:26:51;22.90;99.90
24097;DHT22;12275;48.550;12.132;2022-08-21T14:29:20;22.90;99.90
24097;DHT22;12275;48.550;12.132;2022-08-21T14:31:55;22.90;99.90
24097;DHT22;12275;48.550;12.132;2022-08-21T14:34:24;22.80;99.90
24097;DHT22;12275;48.550;12.132;2022-08-21T14:36:52;22.80;99.90
24097;DHT22;12275;48.550;12.132;2022-08-21T14:39:18;23.00;99.90
24097;DHT22;12275;48.550;12.132;2022-08-21T14:41:44;23.00;99.90
24097;DHT22;12275;48.550;12.132;2022-08-21T14:44:17;23.00;99.90
24097;DHT22;12275;48.550;12.132;2022-08-21T14:46:44;23.00;99.90
24097;DHT22;12275;48.550;12.132;2022-08-21T14:49:09;23.00;99.90
24097;DHT22;12275;48.550;12.132;2022-08-21T14:51:36;23.00;99.90
24097;DHT22;12275;48.550;12.132;2022-08-21T14:54:04;23.00;99.90
24097;DHT22;12275;48.550;12.132;2022-08-21T14:56:31;23.00;99.90
24097;DHT22;12275;48.550;12.132;2022-08-21T14:59:02;23.00;99.90
24097;DHT22;12275;48.550;12.132;2022-08-21T15:01:29;23.00;99.90
24097;DHT22;12275;48.550;12.132;2022-08-21T15:03:56;22.90;99.90
24097;DHT22;12275;48.550;12.132;2022-08-21T15:06:22;22.90;99.90
24097;DHT22;12275;48.550;12.132;2022-08-21T15:08:48;22.80;99.90
24097;DHT22;12275;48.550;12.132;2022-08-21T15:11:18;22.80;99.90
24097;DHT22;12275;48.550;12.132;2022-08-21T15:13:44;22.80;99.90
24097;DHT22;12275;48.550;12.132;2022-08-21T15:16:11;22.80;99.90
24097;DHT22;12275;48.550;12.132;2022-08-21T15:18:37;22.70;99.90
24097;DHT22;12275;48.550;12.132;2022-08-21T15:21:03;22.70;99.90
24097;DHT22;12275;48.550;12.132;2022-08-21T15:23:29;22.70;99.90
24097;DHT22;12275;48.550;12.132;2022-08-21T15:25:55;22.60;99.90
24097;DHT22;12275;48.550;12.132;2022-08-21T15:28:23;22.60;99.90
24097;DHT22;12275;48.550;12.132;2022-08-21T15:30:49;22.50;99.90
24097;DHT22;12275;48.550;12.132;2022-08-21T15:33:16;22.50;99.90
24097;DHT22;12275;48.550;12.132;2022-08-21T15:35:43;22.40;99.90
24097;DHT22;12275;48.550;12.132;2022-08-21T15:38:09;22.40;99.90
24097;DHT22;12275;48.550;12.132;2022-08-21T15:40:36;22.40;99.90
24097;DHT22;12275;48.550;12.132;2022-08-21T15:43:04;22.40;99.90
24097;DHT22;12275;48.550;12.132;2022-08-21T15:45:33;22.40;99.90
24097;DHT22;12275;48.550;12.132;2022-08-21T15:47:59;22.40;99.90
24097;DHT22;12275;48.550;12.132;2022-08-21T15:50:26;22.40;99.90
24097;DHT22;12275;48.550;12.132;2022-08-21T15:52:53;22.40;99.90
24097;DHT22;12275;48.550;12.132;2022-08-21T15:55:20;22.40;99.90
24097;DHT22;12275;48.550;12.132;2022-08-21T15:57:48;22.40;99.90
24097;DHT22;12275;48.550;12.132;2022-08-21T16:00:20;22.30;99.90
24097;DHT22;12275;48.550;12.132;2022-08-21T16:02:51;22.30;99.90
24097;DHT22;12275;48.550;12.132;2022-08-21T16:05:18;22.30;99.90
24097;DHT22;12275;48.550;12.132;2022-08-21T16:07:46;22.30;99.90
24097;DHT22;12275;48.550;12.132;2022-08-21T16:10:13;22.30;99.90
24097;DHT22;12275;48.550;12.132;2022-08-21T16:12:50;22.20;99.90
24097;DHT22;12275;48.550;12.132;2022-08-21T16:15:17;22.20;99.90
24097;DHT22;12275;48.550;12.132;2022-08-21T16:17:45;22.20;99.90
24097;DHT22;12275;48.550;12.132;2022-08-21T16:20:18;22.20;99.90
24097;DHT22;12275;48.550;12.132;2022-08-21T16:22:44;22.10;99.90
24097;DHT22;12275;48.550;12.132;2022-08-21T16:25:11;22.10;99.90
24097;DHT22;12275;48.550;12.132;2022-08-21T16:27:37;22.10;99.90
24097;DHT22;12275;48.550;12.132;2022-08-21T16:30:05;22.10;99.90
24097;DHT22;12275;48.550;12.132;2022-08-21T16:32:31;22.10;99.90
24097;DHT22;12275;48.550;12.132;2022-08-21T16:34:57;22.10;99.90
24097;DHT22;12275;48.550;12.132;2022-08-21T16:37:22;22.10;99.90
24097;DHT22;12275;48.550;12.132;2022-08-21T16:39:48;22.10;99.90
24097;DHT22;12275;48.550;12.132;2022-08-21T16:42:18;22.10;99.90
24097;DHT22;12275;48.550;12.132;2022-08-21T16:44:46;22.10;99.90
24097;DHT22;12275;48.550;12.132;2022-08-21T16:47:11;22.10;99.90
24097;DHT22;12275;48.550;12.132;2022-08-21T16:49:37;22.10;99.90
24097;DHT22;12275;48.550;12.132;2022-08-21T16:52:04;22.00;99.90